Observation data for Guthrie on 07/11/2018      Previous  Date       Current Mesonet Observations  Soil Data  Daily Summary Page  Observations in Plain Language
KPFS 110505Z 15008KT 26/18 A3008 RMK A01 T02630176  RH  062%=      5-min Rain = 0
KPFS 110510Z 15007KT 26/18 A3008 RMK A01 T02630178  RH  063%=      5-min Rain = 0
KPFS 110515Z 15008KT 26/18 A3008 RMK A01 T02630179  RH  063%=      5-min Rain = 0
KPFS 110520Z 15009KT 26/18 A3008 RMK A01 T02630180  RH  064%=      5-min Rain = 0
KPFS 110525Z 15009KT 26/18 A3008 RMK A01 T02630181  RH  064%=      5-min Rain = 0
KPFS 110530Z 15009KT 26/18 A3008 RMK A01 T02620181  RH  064%=      5-min Rain = 0
KPFS 110535Z 15008KT 26/18 A3008 RMK A01 T02610180  RH  064%=      5-min Rain = 0
KPFS 110540Z 14009KT 26/18 A3008 RMK A01 T02610179  RH  064%=      5-min Rain = 0
KPFS 110545Z 15010KT 26/18 A3008 RMK A01 T02600179  RH  064%=      5-min Rain = 0
KPFS 110550Z 14009KT 26/18 A3008 RMK A01 T02590178  RH  064%=      5-min Rain = 0
KPFS 110555Z 15009KT 26/18 A3008 RMK A01 T02590178  RH  064%=      5-min Rain = 0
KPFS 110600Z 15010KT 26/18 A3008 RMK A01 T02580177  RH  064%=      5-min Rain = 0
KPFS 110605Z 15009KT 26/18 A3008 RMK A01 T02570177  RH  065%=      5-min Rain = 0
KPFS 110610Z 15009KT 26/18 A3008 RMK A01 T02560177  RH  065%=      5-min Rain = 0
KPFS 110615Z 15008KT 26/18 A3008 RMK A01 T02550177  RH  065%=      5-min Rain = 0
KPFS 110620Z 15008KT 25/18 A3008 RMK A01 T02540176  RH  065%=      5-min Rain = 0
KPFS 110625Z 15007KT 25/18 A3008 RMK A01 T02540176  RH  065%=      5-min Rain = 0
KPFS 110630Z 15007KT 25/18 A3008 RMK A01 T02520176  RH  066%=      5-min Rain = 0
KPFS 110635Z 15007KT 25/18 A3008 RMK A01 T02510176  RH  066%=      5-min Rain = 0
KPFS 110640Z 15007KT 25/18 A3008 RMK A01 T02510176  RH  067%=      5-min Rain = 0
KPFS 110645Z 15007KT 25/18 A3008 RMK A01 T02500177  RH  067%=      5-min Rain = 0
KPFS 110650Z 15007KT 25/18 A3008 RMK A01 T02490177  RH  067%=      5-min Rain = 0
KPFS 110655Z 15006KT 25/18 A3008 RMK A01 T02480177  RH  068%=      5-min Rain = 0
KPFS 110700Z 15006KT 25/18 A3008 RMK A01 T02480177  RH  068%=      5-min Rain = 0
KPFS 110705Z 16006KT 25/18 A3008 RMK A01 T02480178  RH  068%=      5-min Rain = 0
KPFS 110710Z 16004KT 25/18 A3008 RMK A01 T02480178  RH  068%=      5-min Rain = 0
KPFS 110715Z 16004KT 25/18 A3008 RMK A01 T02480178  RH  069%=      5-min Rain = 0
KPFS 110720Z 16004KT 25/18 A3008 RMK A01 T02470178  RH  069%=      5-min Rain = 0
KPFS 110725Z 17003KT 25/18 A3007 RMK A01 T02460178  RH  069%=      5-min Rain = 0
KPFS 110730Z 19002KT 24/18 A3007 RMK A01 T02440177  RH  070%=      5-min Rain = 0
KPFS 110735Z 22001KT 24/18 A3007 RMK A01 T02430177  RH  070%=      5-min Rain = 0
KPFS 110740Z 26000KT 24/18 A3007 RMK A01 T02420176  RH  070%=      5-min Rain = 0
KPFS 110745Z 25001KT 24/18 A3007 RMK A01 T02410176  RH  071%=      5-min Rain = 0
KPFS 110750Z 18001KT 24/18 A3007 RMK A01 T02400176  RH  071%=      5-min Rain = 0
KPFS 110755Z 18002KT 24/18 A3007 RMK A01 T02400176  RH  071%=      5-min Rain = 0
KPFS 110800Z 17003KT 24/18 A3007 RMK A01 T02400176  RH  071%=      5-min Rain = 0
KPFS 110805Z 18002KT 24/18 A3007 RMK A01 T02390176  RH  071%=      5-min Rain = 0
KPFS 110810Z 19002KT 24/18 A3007 RMK A01 T02380176  RH  072%=      5-min Rain = 0
KPFS 110815Z 18001KT 24/18 A3007 RMK A01 T02370175  RH  072%=      5-min Rain = 0
KPFS 110820Z 17002KT 24/18 A3007 RMK A01 T02370176  RH  072%=      5-min Rain = 0
KPFS 110825Z 16003KT 24/18 A3007 RMK A01 T02360176  RH  072%=      5-min Rain = 0
KPFS 110830Z 16003KT 24/18 A3007 RMK A01 T02360176  RH  073%=      5-min Rain = 0
KPFS 110835Z 18002KT 24/18 A3007 RMK A01 T02350176  RH  073%=      5-min Rain = 0
KPFS 110840Z 19002KT 23/18 A3007 RMK A01 T02340175  RH  073%=      5-min Rain = 0
KPFS 110845Z 22001KT 23/18 A3007 RMK A01 T02320176  RH  074%=      5-min Rain = 0
KPFS 110850Z 22001KT 23/18 A3007 RMK A01 T02320176  RH  075%=      5-min Rain = 0
KPFS 110855Z 26001KT 23/18 A3007 RMK A01 T02320176  RH  075%=      5-min Rain = 0
KPFS 110900Z 28002KT 23/17 A3008 RMK A01 T02280173  RH  075%=      5-min Rain = 0
KPFS 110905Z 28002KT 23/18 A3008 RMK A01 T02270176  RH  077%=      5-min Rain = 0
KPFS 110910Z 23002KT 23/18 A3007 RMK A01 T02270178  RH  078%=      5-min Rain = 0
KPFS 110915Z 20002KT 23/18 A3007 RMK A01 T02270177  RH  077%=      5-min Rain = 0
KPFS 110920Z 21003KT 23/18 A3008 RMK A01 T02290176  RH  076%=      5-min Rain = 0
KPFS 110925Z 20003KT 23/18 A3007 RMK A01 T02280176  RH  076%=      5-min Rain = 0
KPFS 110930Z 20003KT 23/18 A3007 RMK A01 T02280176  RH  076%=      5-min Rain = 0
KPFS 110935Z 20003KT 23/18 A3007 RMK A01 T02270175  RH  076%=      5-min Rain = 0
KPFS 110940Z 20002KT 23/18 A3007 RMK A01 T02260175  RH  077%=      5-min Rain = 0
KPFS 110945Z 20002KT 23/18 A3007 RMK A01 T02250175  RH  077%=      5-min Rain = 0
KPFS 110950Z 22002KT 22/17 A3007 RMK A01 T02240174  RH  077%=      5-min Rain = 0
KPFS 110955Z 23002KT 22/17 A3006 RMK A01 T02220174  RH  078%=      5-min Rain = 0
KPFS 111000Z 23003KT 22/17 A3006 RMK A01 T02210173  RH  078%=      5-min Rain = 0
KPFS 111005Z 23003KT 22/17 A3006 RMK A01 T02200173  RH  078%=      5-min Rain = 0
KPFS 111010Z 23003KT 22/17 A3006 RMK A01 T02200173  RH  079%=      5-min Rain = 0
KPFS 111015Z 22004KT 22/17 A3006 RMK A01 T02200173  RH  079%=      5-min Rain = 0
KPFS 111020Z 21005KT 22/18 A3006 RMK A01 T02220175  RH  078%=      5-min Rain = 0
KPFS 111025Z 21004KT 22/17 A3006 RMK A01 T02230174  RH  078%=      5-min Rain = 0
KPFS 111030Z 21004KT 22/17 A3006 RMK A01 T02220174  RH  078%=      5-min Rain = 0
KPFS 111035Z 21004KT 22/18 A3006 RMK A01 T02220175  RH  079%=      5-min Rain = 0
KPFS 111040Z 20004KT 22/18 A3006 RMK A01 T02220176  RH  079%=      5-min Rain = 0
KPFS 111045Z 21004KT 22/18 A3006 RMK A01 T02210176  RH  079%=      5-min Rain = 0
KPFS 111050Z 21005KT 22/18 A3006 RMK A01 T02210176  RH  080%=      5-min Rain = 0
KPFS 111055Z 22004KT 22/18 A3006 RMK A01 T02200176  RH  080%=      5-min Rain = 0
KPFS 111100Z 21004KT 22/18 A3006 RMK A01 T02190175  RH  080%=      5-min Rain = 0
KPFS 111105Z 22004KT 22/18 A3006 RMK A01 T02190176  RH  081%=      5-min Rain = 0
KPFS 111110Z 22005KT 22/18 A3006 RMK A01 T02180175  RH  081%=      5-min Rain = 0
KPFS 111115Z 22005KT 22/18 A3006 RMK A01 T02170176  RH  081%=      5-min Rain = 0
KPFS 111120Z 22006KT 22/18 A3006 RMK A01 T02160175  RH  082%=      5-min Rain = 0
KPFS 111125Z 22006KT 22/18 A3007 RMK A01 T02160176  RH  082%=      5-min Rain = 0
KPFS 111130Z 22006KT 22/18 A3007 RMK A01 T02170176  RH  082%=      5-min Rain = 0
KPFS 111135Z 23005KT 22/18 A3007 RMK A01 T02160176  RH  082%=      5-min Rain = 0
KPFS 111140Z 22005KT 22/18 A3007 RMK A01 T02150176  RH  082%=      5-min Rain = 0
KPFS 111145Z 22005KT 22/18 A3007 RMK A01 T02160177  RH  083%=      5-min Rain = 0
KPFS 111150Z 22005KT 22/18 A3007 RMK A01 T02170177  RH  082%=      5-min Rain = 0
KPFS 111155Z 21005KT 22/18 A3008 RMK A01 T02170178  RH  082%=      5-min Rain = 0
KPFS 111200Z 21005KT 22/18 A3008 RMK A01 T02180178  RH  082%=      5-min Rain = 0
KPFS 111205Z 20005KT 22/18 A3008 RMK A01 T02180178  RH  082%=      5-min Rain = 0
KPFS 111210Z 21005KT 22/18 A3008 RMK A01 T02190179  RH  082%=      5-min Rain = 0
KPFS 111215Z 21004KT 22/18 A3008 RMK A01 T02200179  RH  081%=      5-min Rain = 0
KPFS 111220Z 20004KT 22/18 A3008 RMK A01 T02210179  RH  081%=      5-min Rain = 0
KPFS 111225Z 20003KT 22/18 A3008 RMK A01 T02230180  RH  081%=      5-min Rain = 0
KPFS 111230Z 21002KT 23/18 A3009 RMK A01 T02260180  RH  079%=      5-min Rain = 0
KPFS 111235Z 22002KT 23/18 A3009 RMK A01 T02280180  RH  078%=      5-min Rain = 0
KPFS 111240Z 23003KT 23/18 A3009 RMK A01 T02320181  RH  077%=      5-min Rain = 0
KPFS 111245Z 22002KT 24/18 A3009 RMK A01 T02360182  RH  075%=      5-min Rain = 0
KPFS 111250Z 22003KT 24/18 A3009 RMK A01 T02400182  RH  074%=      5-min Rain = 0
KPFS 111255Z 22003KT 24/18 A3009 RMK A01 T02440181  RH  072%=      5-min Rain = 0
KPFS 111300Z 23003KT 25/18 A3009 RMK A01 T02450180  RH  070%=      5-min Rain = 0
KPFS 111305Z 22004KT 25/18 A3009 RMK A01 T02480180  RH  069%=      5-min Rain = 0
KPFS 111310Z 21004KT 25/18 A3009 RMK A01 T02510181  RH  068%=      5-min Rain = 0
KPFS 111315Z 21004KT 26/18 A3009 RMK A01 T02550180  RH  066%=      5-min Rain = 0
KPFS 111320Z 21006KT 26/18 A3009 RMK A01 T02600176  RH  063%=      5-min Rain = 0
KPFS 111325Z 21006KT 27/17 A3009 RMK A01 T02650172  RH  060%=      5-min Rain = 0
KPFS 111330Z 21007KT 27/17 A3009 RMK A01 T02700168  RH  056%=      5-min Rain = 0
KPFS 111335Z 21009G15KT 27/16 A3009 RMK A01 T02740164  RH  054%=      5-min Rain = 0
KPFS 111340Z 21009KT 27/16 A301 RMK A01 T02730162  RH  053%=      5-min Rain = 0
KPFS 111345Z 22007G13KT 28/16 A301 RMK A01 T02770164  RH  053%=      5-min Rain = 0
KPFS 111350Z 21012KT 28/16 A301 RMK A01 T02790161  RH  051%=      5-min Rain = 0
KPFS 111355Z 22012KT 28/16 A301 RMK A01 T02800160  RH  051%=      5-min Rain = 0
KPFS 111400Z 22011KT 28/16 A301 RMK A01 T02800161  RH  051%=      5-min Rain = 0
KPFS 111405Z 22009KT 28/16 A301 RMK A01 T02840162  RH  050%=      5-min Rain = 0
KPFS 111410Z 22013G18KT 28/16 A301 RMK A01 T02840161  RH  050%=      5-min Rain = 0
KPFS 111415Z 22015G20KT 28/16 A3011 RMK A01 T02840162  RH  050%=      5-min Rain = 0
KPFS 111420Z 22015KT 29/16 A3011 RMK A01 T02860162  RH  049%=      5-min Rain = 0
KPFS 111425Z 22013G20KT 29/16 A3011 RMK A01 T02890163  RH  049%=      5-min Rain = 0
KPFS 111430Z 22013G18KT 29/16 A3011 RMK A01 T02880163  RH  049%=      5-min Rain = 0
KPFS 111435Z 22012KT 29/16 A3011 RMK A01 T02910164  RH  049%=      5-min Rain = 0
KPFS 111440Z 21013KT 29/17 A3011 RMK A01 T02910165  RH  049%=      5-min Rain = 0
KPFS 111445Z 22012KT 30/17 A3011 RMK A01 T02950166  RH  048%=      5-min Rain = 0
KPFS 111450Z 21012KT 30/17 A3011 RMK A01 T02970166  RH  048%=      5-min Rain = 0
KPFS 111455Z 21012KT 30/17 A3011 RMK A01 T02980166  RH  047%=      5-min Rain = 0
KPFS 111500Z 20014KT 30/16 A301 RMK A01 T03020164  RH  046%=      5-min Rain = 0
KPFS 111505Z 21013KT 30/16 A301 RMK A01 T03040164  RH  045%=      5-min Rain = 0
KPFS 111510Z 22012KT 31/16 A301 RMK A01 T03050164  RH  045%=      5-min Rain = 0
KPFS 111515Z 22013KT 31/16 A301 RMK A01 T03060162  RH  044%=      5-min Rain = 0
KPFS 111520Z 21012KT 30/16 A301 RMK A01 T03040163  RH  045%=      5-min Rain = 0
KPFS 111525Z 21013KT 31/16 A301 RMK A01 T03060162  RH  044%=      5-min Rain = 0
KPFS 111530Z 21011G17KT 31/16 A301 RMK A01 T03080163  RH  044%=      5-min Rain = 0
KPFS 111535Z 22011KT 31/16 A301 RMK A01 T03120164  RH  043%=      5-min Rain = 0
KPFS 111540Z 22011KT 31/16 A301 RMK A01 T03100162  RH  043%=      5-min Rain = 0
KPFS 111545Z 22011KT 32/16 A301 RMK A01 T03160162  RH  042%=      5-min Rain = 0
KPFS 111550Z 22011KT 31/16 A301 RMK A01 T03140162  RH  042%=      5-min Rain = 0
KPFS 111555Z 22010KT 32/16 A301 RMK A01 T03170162  RH  041%=      5-min Rain = 0
KPFS 111600Z 22009G14KT 32/16 A3009 RMK A01 T03230163  RH  040%=      5-min Rain = 0
KPFS 111605Z 20011G17KT 32/16 A3009 RMK A01 T03240159  RH  039%=      5-min Rain = 0
KPFS 111610Z 21012G17KT 32/16 A3009 RMK A01 T03230158  RH  039%=      5-min Rain = 0
KPFS 111615Z 21010KT 32/16 A3009 RMK A01 T03240158  RH  039%=      5-min Rain = 0
KPFS 111620Z 21009KT 33/16 A3009 RMK A01 T03260157  RH  038%=      5-min Rain = 0
KPFS 111625Z 20011G16KT 33/15 A3009 RMK A01 T03280154  RH  037%=      5-min Rain = 0
KPFS 111630Z 22008KT 33/15 A3009 RMK A01 T03280149  RH  035%=      5-min Rain = 0
KPFS 111635Z 18008KT 34/15 A3009 RMK A01 T03360153  RH  035%=      5-min Rain = 0
KPFS 111640Z 20009KT 34/15 A3009 RMK A01 T03360152  RH  035%=      5-min Rain = 0
KPFS 111645Z 24006G12KT 33/15 A3009 RMK A01 T03310151  RH  035%=      5-min Rain = 0
KPFS 111650Z 20010KT 34/15 A3008 RMK A01 T03360153  RH  035%=      5-min Rain = 0
KPFS 111655Z 17009KT 33/15 A3008 RMK A01 T03340147  RH  034%=      5-min Rain = 0
KPFS 111700Z 20004G9KT 34/14 A3008 RMK A01 T03370144  RH  033%=      5-min Rain = 0
KPFS 111705Z 18009KT 34/15 A3008 RMK A01 T03390147  RH  033%=      5-min Rain = 0
KPFS 111710Z 19006G18KT 34/15 A3008 RMK A01 T03380146  RH  033%=      5-min Rain = 0
KPFS 111715Z 17010G16KT 35/14 A3008 RMK A01 T03470143  RH  031%=      5-min Rain = 0
KPFS 111720Z 18008G14KT 34/14 A3008 RMK A01 T03430143  RH  032%=      5-min Rain = 0
KPFS 111725Z 20007G16KT 34/14 A3008 RMK A01 T03420143  RH  031%=      5-min Rain = 0
KPFS 111730Z 21009G15KT 35/14 A3008 RMK A01 T03490141  RH  030%=      5-min Rain = 0
KPFS 111735Z 17008G14KT 35/14 A3008 RMK A01 T03450142  RH  031%=      5-min Rain = 0
KPFS 111740Z 20011G17KT 35/14 A3008 RMK A01 T03460139  RH  030%=      5-min Rain = 0
KPFS 111745Z 20008G14KT 34/13 A3008 RMK A01 T03420133  RH  029%=      5-min Rain = 0
KPFS 111750Z 15011G19KT 35/14 A3007 RMK A01 T03480137  RH  029%=      5-min Rain = 0
KPFS 111755Z 18012G19KT 35/14 A3007 RMK A01 T03450136  RH  030%=      5-min Rain = 0
KPFS 111800Z 19012G18KT 35/14 A3007 RMK A01 T03510136  RH  029%=      5-min Rain = 0
KPFS 111805Z 19008G13KT 35/14 A3007 RMK A01 T03460135  RH  029%=      5-min Rain = 0
KPFS 111810Z 18010G19KT 35/14 A3006 RMK A01 T03500135  RH  029%=      5-min Rain = 0
KPFS 111815Z 19010G16KT 36/13 A3006 RMK A01 T03590133  RH  027%=      5-min Rain = 0
KPFS 111820Z 21007G13KT 35/13 A3006 RMK A01 T03510132  RH  028%=      5-min Rain = 0
KPFS 111825Z 19010G18KT 35/13 A3006 RMK A01 T03480131  RH  028%=      5-min Rain = 0
KPFS 111830Z 17013G18KT 36/13 A3006 RMK A01 T03600131  RH  026%=      5-min Rain = 0
KPFS 111835Z 16008G15KT 35/13 A3005 RMK A01 T03520132  RH  028%=      5-min Rain = 0
KPFS 111840Z 19013G20KT 36/13 A3005 RMK A01 T03600132  RH  027%=      5-min Rain = 0
KPFS 111845Z 16011G18KT 35/13 A3005 RMK A01 T03470132  RH  029%=      5-min Rain = 0
KPFS 111850Z 17010G18KT 35/13 A3005 RMK A01 T03540131  RH  027%=      5-min Rain = 0
KPFS 111855Z 18011KT 35/13 A3005 RMK A01 T03480130  RH  028%=      5-min Rain = 0
KPFS 111900Z 20006KT 35/13 A3005 RMK A01 T03450132  RH  029%=      5-min Rain = 0
KPFS 111905Z 16007KT 35/13 A3005 RMK A01 T03520130  RH  027%=      5-min Rain = 0
KPFS 111910Z 16009KT 35/13 A3004 RMK A01 T03470129  RH  028%=      5-min Rain = 0
KPFS 111915Z 20009G16KT 35/13 A3004 RMK A01 T03530127  RH  027%=      5-min Rain = 0
KPFS 111920Z 18012G17KT 35/12 A3004 RMK A01 T03500123  RH  026%=      5-min Rain = 0
KPFS 111925Z 17015G22KT 35/12 A3004 RMK A01 T03530124  RH  026%=      5-min Rain = 0
KPFS 111930Z 17012G20KT 35/12 A3004 RMK A01 T03520124  RH  026%=      5-min Rain = 0
KPFS 111935Z 14011G17KT 35/12 A3004 RMK A01 T03540124  RH  026%=      5-min Rain = 0
KPFS 111940Z 17009KT 35/13 A3003 RMK A01 T03470125  RH  027%=      5-min Rain = 0
KPFS 111945Z 19012KT 35/12 A3003 RMK A01 T03500124  RH  027%=      5-min Rain = 0
KPFS 111950Z 18009KT 36/13 A3003 RMK A01 T03560125  RH  026%=      5-min Rain = 0
KPFS 111955Z 19015G20KT 37/13 A3002 RMK A01 T03710126  RH  024%=      5-min Rain = 0
KPFS 112000Z 17014G23KT 37/13 A3002 RMK A01 T03720129  RH  024%=      5-min Rain = 0
KPFS 112005Z 17013G18KT 37/13 A3002 RMK A01 T03670128  RH  025%=      5-min Rain = 0
KPFS 112010Z 16014G19KT 36/13 A3002 RMK A01 T03550125  RH  026%=      5-min Rain = 0
KPFS 112015Z 16013G20KT 36/13 A3001 RMK A01 T03550127  RH  026%=      5-min Rain = 0
KPFS 112020Z 16013G18KT 36/12 A3001 RMK A01 T03630124  RH  025%=      5-min Rain = 0
KPFS 112025Z 18014G19KT 35/12 A3001 RMK A01 T03490124  RH  027%=      5-min Rain = 0
KPFS 112030Z 18013KT 35/12 A3001 RMK A01 T03490124  RH  027%=      5-min Rain = 0
KPFS 112035Z 18013G18KT 36/12 A30 RMK A01 T03630123  RH  025%=      5-min Rain = 0
KPFS 112040Z 15013G20KT 37/12 A30 RMK A01 T03690120  RH  023%=      5-min Rain = 0
KPFS 112045Z 15010G15KT 36/12 A30 RMK A01 T03620118  RH  024%=      5-min Rain = 0
KPFS 112050Z 16007G13KT 36/12 A2999 RMK A01 T03620118  RH  024%=      5-min Rain = 0
KPFS 112055Z 15012G17KT 37/12 A2999 RMK A01 T03690118  RH  023%=      5-min Rain = 0
KPFS 112100Z 16011G22KT 37/12 A2999 RMK A01 T03700115  RH  022%=      5-min Rain = 0
KPFS 112105Z 18014G25KT 38/11 A2999 RMK A01 T03750112  RH  021%=      5-min Rain = 0
KPFS 112110Z 16011G18KT 37/12 A2999 RMK A01 T03680119  RH  023%=      5-min Rain = 0
KPFS 112115Z 18010G16KT 36/12 A2999 RMK A01 T03640119  RH  024%=      5-min Rain = 0
KPFS 112120Z 19014G19KT 36/12 A2998 RMK A01 T03620115  RH  023%=      5-min Rain = 0
KPFS 112125Z 16011G17KT 37/11 A2998 RMK A01 T03650113  RH  023%=      5-min Rain = 0
KPFS 112130Z 18010G19KT 37/12 A2998 RMK A01 T03680115  RH  023%=      5-min Rain = 0
KPFS 112135Z 19010G17KT 38/12 A2998 RMK A01 T03760117  RH  022%=      5-min Rain = 0
KPFS 112140Z 17011G18KT 38/12 A2998 RMK A01 T03780119  RH  022%=      5-min Rain = 0
KPFS 112145Z 15012G17KT 37/12 A2997 RMK A01 T03710119  RH  023%=      5-min Rain = 0
KPFS 112150Z 15013G18KT 36/12 A2997 RMK A01 T03580119  RH  025%=      5-min Rain = 0
KPFS 112155Z 15012G18KT 36/12 A2997 RMK A01 T03580120  RH  025%=      5-min Rain = 0
KPFS 112200Z 16010G16KT 36/12 A2997 RMK A01 T03590119  RH  024%=      5-min Rain = 0
KPFS 112205Z 17011G18KT 36/12 A2997 RMK A01 T03640119  RH  024%=      5-min Rain = 0
KPFS 112210Z 14011KT 36/12 A2996 RMK A01 T03610119  RH  024%=      5-min Rain = 0
KPFS 112215Z 14014G20KT 36/12 A2996 RMK A01 T03560117  RH  025%=      5-min Rain = 0
KPFS 112220Z 14010KT 36/12 A2996 RMK A01 T03550117  RH  025%=      5-min Rain = 0
KPFS 112225Z 14012KT 36/12 A2996 RMK A01 T03560117  RH  025%=      5-min Rain = 0
KPFS 112230Z 15011KT 35/12 A2996 RMK A01 T03530116  RH  025%=      5-min Rain = 0
KPFS 112235Z 15012KT 36/12 A2996 RMK A01 T03550117  RH  025%=      5-min Rain = 0
KPFS 112240Z 16012KT 35/12 A2996 RMK A01 T03540116  RH  025%=      5-min Rain = 0
KPFS 112245Z 15009KT 36/12 A2996 RMK A01 T03550116  RH  024%=      5-min Rain = 0
KPFS 112250Z 16012G19KT 36/12 A2996 RMK A01 T03560116  RH  024%=      5-min Rain = 0
KPFS 112255Z 19011G16KT 36/12 A2996 RMK A01 T03600116  RH  024%=      5-min Rain = 0
KPFS 112300Z 17010KT 37/12 A2996 RMK A01 T03670116  RH  023%=      5-min Rain = 0
KPFS 112305Z 16009KT 36/12 A2996 RMK A01 T03600116  RH  024%=      5-min Rain = 0
KPFS 112310Z 19012G22KT 36/12 A2995 RMK A01 T03580116  RH  024%=      5-min Rain = 0
KPFS 112315Z 19008KT 36/12 A2995 RMK A01 T03560117  RH  025%=      5-min Rain = 0
KPFS 112320Z 17010KT 36/12 A2995 RMK A01 T03580116  RH  024%=      5-min Rain = 0
KPFS 112325Z 19010KT 36/12 A2995 RMK A01 T03590117  RH  024%=      5-min Rain = 0
KPFS 112330Z 18010KT 36/12 A2995 RMK A01 T03580116  RH  024%=      5-min Rain = 0
KPFS 112335Z 17009G17KT 36/12 A2995 RMK A01 T03600116  RH  024%=      5-min Rain = 0
KPFS 112340Z 17013G18KT 36/12 A2995 RMK A01 T03570116  RH  024%=      5-min Rain = 0
KPFS 112345Z 15010G15KT 36/12 A2995 RMK A01 T03550122  RH  025%=      5-min Rain = 0
KPFS 112350Z 14012G18KT 35/12 A2995 RMK A01 T03540123  RH  026%=      5-min Rain = 0
KPFS 112355Z 17009G14KT 35/12 A2995 RMK A01 T03530123  RH  026%=      5-min Rain = 0
KPFS 120000Z 16009KT 36/12 A2995 RMK A01 T03570120  RH  025%=      5-min Rain = 0
KPFS 120005Z 16010KT 36/12 A2995 RMK A01 T03560118  RH  025%=      5-min Rain = 0
KPFS 120010Z 17010KT 36/12 A2995 RMK A01 T03550118  RH  025%=      5-min Rain = 0
KPFS 120015Z 16010KT 35/12 A2995 RMK A01 T03540120  RH  025%=      5-min Rain = 0
KPFS 120020Z 15011KT 35/12 A2995 RMK A01 T03510122  RH  026%=      5-min Rain = 0
KPFS 120025Z 16009KT 35/12 A2995 RMK A01 T03520122  RH  026%=      5-min Rain = 0
KPFS 120030Z 18012KT 35/12 A2995 RMK A01 T03510121  RH  026%=      5-min Rain = 0
KPFS 120035Z 18010G15KT 35/12 A2995 RMK A01 T03490123  RH  026%=      5-min Rain = 0
KPFS 120040Z 18011G16KT 35/12 A2995 RMK A01 T03480123  RH  027%=      5-min Rain = 0
KPFS 120045Z 18010KT 35/12 A2995 RMK A01 T03470123  RH  027%=      5-min Rain = 0
KPFS 120050Z 17010KT 35/12 A2995 RMK A01 T03470122  RH  027%=      5-min Rain = 0
KPFS 120055Z 18010KT 35/12 A2996 RMK A01 T03460122  RH  027%=      5-min Rain = 0
KPFS 120100Z 18010KT 35/12 A2996 RMK A01 T03450122  RH  027%=      5-min Rain = 0
KPFS 120105Z 18008KT 35/12 A2996 RMK A01 T03450123  RH  027%=      5-min Rain = 0
KPFS 120110Z 19009KT 35/12 A2996 RMK A01 T03460124  RH  027%=      5-min Rain = 0
KPFS 120115Z 18007KT 34/12 A2996 RMK A01 T03440124  RH  028%=      5-min Rain = 0
KPFS 120120Z 18007KT 34/12 A2996 RMK A01 T03420124  RH  028%=      5-min Rain = 0
KPFS 120125Z 18007KT 34/12 A2997 RMK A01 T03410124  RH  028%=      5-min Rain = 0
KPFS 120130Z 17008KT 34/12 A2997 RMK A01 T03400123  RH  028%=      5-min Rain = 0
KPFS 120135Z 17007KT 34/12 A2997 RMK A01 T03390124  RH  028%=      5-min Rain = 0
KPFS 120140Z 17006KT 34/12 A2997 RMK A01 T03370124  RH  029%=      5-min Rain = 0
KPFS 120145Z 16007KT 34/13 A2997 RMK A01 T03360125  RH  029%=      5-min Rain = 0
KPFS 120150Z 16006KT 34/13 A2997 RMK A01 T03350125  RH  029%=      5-min Rain = 0
KPFS 120155Z 16007KT 34/12 A2997 RMK A01 T03350124  RH  029%=      5-min Rain = 0
KPFS 120200Z 16007KT 33/12 A2997 RMK A01 T03340123  RH  029%=      5-min Rain = 0
KPFS 120205Z 15007KT 33/12 A2998 RMK A01 T03340123  RH  029%=      5-min Rain = 0
KPFS 120210Z 15007KT 33/12 A2998 RMK A01 T03330123  RH  029%=      5-min Rain = 0
KPFS 120215Z 15007KT 33/12 A2998 RMK A01 T03320123  RH  029%=      5-min Rain = 0
KPFS 120220Z 15006KT 33/12 A2998 RMK A01 T03310124  RH  030%=      5-min Rain = 0
KPFS 120225Z 15006KT 33/13 A2998 RMK A01 T03290125  RH  030%=      5-min Rain = 0
KPFS 120230Z 14006KT 33/13 A2998 RMK A01 T03270126  RH  031%=      5-min Rain = 0
KPFS 120235Z 13005KT 33/13 A2998 RMK A01 T03260127  RH  031%=      5-min Rain = 0
KPFS 120240Z 13005KT 32/13 A2998 RMK A01 T03230128  RH  032%=      5-min Rain = 0
KPFS 120245Z 13006KT 32/13 A2999 RMK A01 T03220128  RH  032%=      5-min Rain = 0
KPFS 120250Z 12006KT 32/13 A2999 RMK A01 T03210129  RH  032%=      5-min Rain = 0
KPFS 120255Z 13007KT 32/13 A2999 RMK A01 T03200129  RH  033%=      5-min Rain = 0
KPFS 120300Z 13008KT 32/13 A2999 RMK A01 T03210129  RH  032%=      5-min Rain = 0
KPFS 120305Z 13007KT 32/13 A2999 RMK A01 T03200129  RH  033%=      5-min Rain = 0
KPFS 120310Z 13007KT 32/13 A30 RMK A01 T03190129  RH  033%=      5-min Rain = 0
KPFS 120315Z 13008KT 32/13 A30 RMK A01 T03190129  RH  033%=      5-min Rain = 0
KPFS 120320Z 13007KT 32/13 A30 RMK A01 T03190129  RH  033%=      5-min Rain = 0
KPFS 120325Z 13007KT 32/13 A30 RMK A01 T03170130  RH  033%=      5-min Rain = 0
KPFS 120330Z 12008KT 32/13 A30 RMK A01 T03160130  RH  033%=      5-min Rain = 0
KPFS 120335Z 12007KT 31/13 A3001 RMK A01 T03140131  RH  034%=      5-min Rain = 0
KPFS 120340Z 11010G15KT 31/13 A3001 RMK A01 T03130133  RH  035%=      5-min Rain = 0
KPFS 120345Z 12011KT 31/14 A3001 RMK A01 T03110138  RH  036%=      5-min Rain = 0
KPFS 120350Z 13012KT 31/14 A3002 RMK A01 T03120143  RH  037%=      5-min Rain = 0
KPFS 120355Z 13013G18KT 31/15 A3002 RMK A01 T03120148  RH  039%=      5-min Rain = 0
KPFS 120400Z 13013G19KT 31/15 A3002 RMK A01 T03110152  RH  040%=      5-min Rain = 0
KPFS 120405Z 14013G19KT 31/16 A3002 RMK A01 T03090155  RH  041%=      5-min Rain = 0
KPFS 120410Z 13011G16KT 31/16 A3002 RMK A01 T03070156  RH  042%=      5-min Rain = 0
KPFS 120415Z 13010KT 31/16 A3003 RMK A01 T03050157  RH  043%=      5-min Rain = 0
KPFS 120420Z 13010KT 30/16 A3003 RMK A01 T03030157  RH  043%=      5-min Rain = 0
KPFS 120425Z 13010G15KT 30/16 A3003 RMK A01 T03020158  RH  044%=      5-min Rain = 0
KPFS 120430Z 13011KT 30/16 A3003 RMK A01 T03010158  RH  044%=      5-min Rain = 0
KPFS 120435Z 13011G16KT 30/16 A3003 RMK A01 T03010158  RH  044%=      5-min Rain = 0
KPFS 120440Z 13011G16KT 30/16 A3003 RMK A01 T02990158  RH  044%=      5-min Rain = 0
KPFS 120445Z 13012KT 30/16 A3003 RMK A01 T02990158  RH  044%=      5-min Rain = 0
KPFS 120450Z 14011KT 30/16 A3003 RMK A01 T02980157  RH  045%=      5-min Rain = 0
KPFS 120455Z 13010KT 30/16 A3003 RMK A01 T02960158  RH  045%=      5-min Rain = 0
KPFS 120500Z 13009KT 29/16 A3003 RMK A01 T02940157  RH  046%=      5-min Rain = 0

Page generated in 0.0096 seconds.